createdAt,value
2018-07-30T00:00:20.248Z,21.10
2018-07-30T00:05:14.973Z,21.10
2018-07-30T00:10:09.857Z,21.00
2018-07-30T00:15:04.926Z,20.80
2018-07-30T00:19:59.702Z,20.80
2018-07-30T00:24:54.403Z,20.80
2018-07-30T00:29:49.044Z,20.80
2018-07-30T00:34:43.689Z,20.70
2018-07-30T00:39:38.289Z,20.70
2018-07-30T00:44:32.959Z,20.30
2018-07-30T00:49:27.634Z,20.40
2018-07-30T00:54:22.230Z,20.70
2018-07-30T00:59:17.463Z,20.60
2018-07-30T01:04:12.105Z,20.70
2018-07-30T01:09:10.126Z,20.70
2018-07-30T01:14:04.776Z,20.60
2018-07-30T01:18:59.362Z,20.40
2018-07-30T01:23:53.986Z,20.40
2018-07-30T01:28:48.625Z,20.20
2018-07-30T01:33:43.301Z,20.30
2018-07-30T01:38:37.910Z,20.30
2018-07-30T01:43:33.945Z,20.20
2018-07-30T01:48:28.585Z,20.10
2018-07-30T01:53:23.196Z,20.00
2018-07-30T01:58:17.831Z,20.00
2018-07-30T02:03:12.519Z,19.90
2018-07-30T02:08:07.259Z,19.80
2018-07-30T02:13:01.891Z,19.80
2018-07-30T02:17:56.631Z,19.70
2018-07-30T02:22:51.291Z,19.70
2018-07-30T02:27:45.992Z,19.60
2018-07-30T02:32:40.572Z,19.60
2018-07-30T02:37:35.241Z,19.50
2018-07-30T02:42:29.876Z,19.50
2018-07-30T02:47:24.446Z,19.40
2018-07-30T02:52:19.069Z,19.30
2018-07-30T02:57:13.718Z,19.30
2018-07-30T03:02:08.379Z,19.20
2018-07-30T03:07:03.087Z,19.30
2018-07-30T03:11:57.677Z,19.20
2018-07-30T03:16:52.289Z,19.20
2018-07-30T03:21:46.879Z,19.20
2018-07-30T03:26:41.516Z,19.10
2018-07-30T03:31:36.110Z,19.10
2018-07-30T03:36:30.750Z,19.00
2018-07-30T03:41:25.415Z,19.00
2018-07-30T03:46:20.001Z,19.00
2018-07-30T03:51:14.596Z,19.00
2018-07-30T04:01:04.406Z,19.00
2018-07-30T04:05:59.097Z,18.70
2018-07-30T04:10:53.721Z,18.70
2018-07-30T04:15:48.347Z,18.70
2018-07-30T04:20:42.966Z,18.70
2018-07-30T04:25:37.671Z,18.60
2018-07-30T04:30:35.342Z,18.70
2018-07-30T04:35:29.962Z,18.60
2018-07-30T04:40:24.571Z,18.60
2018-07-30T04:45:19.221Z,18.70
2018-07-30T04:50:13.880Z,19.00
2018-07-30T04:55:08.600Z,19.20
2018-07-30T05:00:03.275Z,19.50
2018-07-30T05:04:57.849Z,19.90
2018-07-30T05:09:52.506Z,20.20
2018-07-30T05:14:47.083Z,20.60
2018-07-30T05:19:41.694Z,21.00
2018-07-30T05:24:36.393Z,21.10
2018-07-30T05:29:31.049Z,21.20
2018-07-30T05:34:25.654Z,21.50
2018-07-30T05:39:20.266Z,21.90
2018-07-30T05:44:14.926Z,22.10
2018-07-30T05:49:09.546Z,22.30
2018-07-30T05:54:04.286Z,22.40
2018-07-30T05:58:59.095Z,22.40
2018-07-30T06:08:54.460Z,22.40
2018-07-30T06:13:49.059Z,22.20
2018-07-30T06:18:43.740Z,22.10
2018-07-30T06:23:38.395Z,22.00
2018-07-30T06:28:33.048Z,21.90
2018-07-30T06:33:27.679Z,21.90
2018-07-30T06:38:22.488Z,22.00
2018-07-30T06:43:17.030Z,22.10
2018-07-30T06:48:11.631Z,22.20
2018-07-30T06:53:06.353Z,22.40
2018-07-30T06:58:01.004Z,22.60
2018-07-30T07:02:55.613Z,22.80
2018-07-30T07:07:50.338Z,23.00
2018-07-30T07:12:45.144Z,23.40
2018-07-30T07:17:39.855Z,23.60
2018-07-30T07:22:34.555Z,23.90
2018-07-30T07:27:29.160Z,24.20
2018-07-30T07:32:24.034Z,24.60
2018-07-30T07:37:18.756Z,25.10
2018-07-30T07:42:13.415Z,25.30
2018-07-30T07:47:08.368Z,25.80
2018-07-30T07:52:02.999Z,26.10
2018-07-30T07:56:57.651Z,26.20
2018-07-30T08:01:52.381Z,26.20
2018-07-30T08:06:47.087Z,26.40
2018-07-30T08:11:41.693Z,26.40
2018-07-30T08:16:36.375Z,26.40
2018-07-30T08:21:31.341Z,26.70
2018-07-30T08:26:25.905Z,26.90
2018-07-30T08:31:20.587Z,27.00
2018-07-30T08:36:15.278Z,27.40
2018-07-30T08:41:10.092Z,27.60
2018-07-30T08:46:04.871Z,27.60
2018-07-30T08:50:59.506Z,27.80
2018-07-30T08:55:54.141Z,28.00
2018-07-30T09:00:48.782Z,28.10
2018-07-30T09:05:43.433Z,28.20
2018-07-30T09:10:38.109Z,28.40
2018-07-30T09:15:32.752Z,28.60
2018-07-30T09:20:28.138Z,28.80
2018-07-30T09:25:22.784Z,29.10
2018-07-30T09:30:17.587Z,29.20
2018-07-30T09:35:12.199Z,29.30
2018-07-30T09:40:07.149Z,29.70
2018-07-30T09:45:01.787Z,30.00
2018-07-30T09:49:56.552Z,30.30
2018-07-30T09:54:51.991Z,30.30
2018-07-30T09:59:46.589Z,30.00
2018-07-30T10:04:43.949Z,29.90
2018-07-30T10:09:38.540Z,29.90
2018-07-30T10:14:33.199Z,30.20
2018-07-30T10:19:32.475Z,30.40
2018-07-30T10:24:27.388Z,30.80
2018-07-30T10:34:16.300Z,30.80
2018-07-30T10:39:10.947Z,30.80
2018-07-30T10:44:05.561Z,31.20
2018-07-30T10:49:00.136Z,31.20
2018-07-30T10:53:54.768Z,31.30
2018-07-30T10:58:49.498Z,31.40
2018-07-30T11:03:44.115Z,31.50
2018-07-30T11:08:38.728Z,31.50
2018-07-30T11:13:33.342Z,31.70
2018-07-30T11:18:27.989Z,32.10
2018-07-30T11:23:22.711Z,32.30
2018-07-30T11:28:17.356Z,32.40
2018-07-30T11:33:12.070Z,32.60
2018-07-30T11:38:06.740Z,32.70
2018-07-30T11:43:01.457Z,32.80
2018-07-30T11:47:55.980Z,32.80
2018-07-30T11:52:51.019Z,32.80
2018-07-30T11:57:45.715Z,32.80
2018-07-30T12:02:40.513Z,32.60
2018-07-30T12:07:35.162Z,32.60
2018-07-30T12:12:29.877Z,32.50
2018-07-30T12:22:18.811Z,32.40
2018-07-30T12:27:13.419Z,32.40
2018-07-30T12:32:08.061Z,32.50
2018-07-30T12:37:02.748Z,32.40
2018-07-30T12:54:51.816Z,32.10
2018-07-30T12:59:46.527Z,32.00
2018-07-30T13:04:41.171Z,31.50
2018-07-30T13:09:35.840Z,31.60
2018-07-30T13:14:30.748Z,31.60
2018-07-30T13:19:25.383Z,31.50
2018-07-30T13:24:20.263Z,31.60
2018-07-30T13:29:14.912Z,31.50
2018-07-30T13:34:09.515Z,31.40
2018-07-30T13:39:06.168Z,31.30
2018-07-30T13:44:00.785Z,31.30
2018-07-30T13:48:55.446Z,31.20
2018-07-30T13:53:50.059Z,31.30
2018-07-30T13:58:44.673Z,31.30
2018-07-30T14:03:39.259Z,31.30
2018-07-30T14:08:34.015Z,31.30
2018-07-30T14:13:28.646Z,31.40
2018-07-30T14:18:23.353Z,31.40
2018-07-30T14:23:18.011Z,31.40
2018-07-30T14:28:12.626Z,31.40
2018-07-30T14:33:07.394Z,31.40
2018-07-30T14:38:02.193Z,31.40
2018-07-30T14:42:57.088Z,31.40
2018-07-30T14:47:51.804Z,31.40
2018-07-30T14:52:46.473Z,31.50
2018-07-30T14:57:41.070Z,31.40
2018-07-30T15:02:35.892Z,31.50
2018-07-30T15:07:30.545Z,31.40
2018-07-30T15:12:25.527Z,31.50
2018-07-30T15:17:20.079Z,31.50
2018-07-30T15:22:14.663Z,31.60
2018-07-30T15:27:09.301Z,31.70
2018-07-30T15:32:03.955Z,31.50
2018-07-30T15:36:58.584Z,31.60
2018-07-30T15:41:53.223Z,31.70
2018-07-30T15:46:47.842Z,31.70
2018-07-30T15:51:42.460Z,31.60
2018-07-30T15:56:37.272Z,31.60
2018-07-30T16:01:31.981Z,31.50
2018-07-30T16:06:26.816Z,31.50
2018-07-30T16:11:21.520Z,31.50
2018-07-30T16:16:16.251Z,31.40
2018-07-30T16:21:10.911Z,31.40
2018-07-30T16:26:05.585Z,31.40
2018-07-30T16:31:00.289Z,31.40
2018-07-30T16:35:54.925Z,31.40
2018-07-30T16:40:49.577Z,31.40
2018-07-30T16:45:44.264Z,31.40
2018-07-30T16:50:39.020Z,31.30
2018-07-30T16:55:33.689Z,31.20
2018-07-30T17:00:28.332Z,31.00
2018-07-30T17:05:23.048Z,31.00
2018-07-30T17:10:19.535Z,30.80
2018-07-30T17:15:14.296Z,30.90
2018-07-30T17:20:57.327Z,30.70
2018-07-30T17:30:57.008Z,30.60
2018-07-30T17:35:51.791Z,30.50
2018-07-30T17:40:46.505Z,30.40
2018-07-30T17:45:41.502Z,30.40
2018-07-30T17:50:36.211Z,30.30
2018-07-30T17:55:31.371Z,30.30
2018-07-30T18:00:26.016Z,30.20
2018-07-30T18:05:21.113Z,30.10
2018-07-30T18:10:16.463Z,29.90
2018-07-30T18:15:11.264Z,29.70
2018-07-30T18:20:06.212Z,29.40
2018-07-30T18:25:00.906Z,29.20
2018-07-30T18:29:55.541Z,28.80
2018-07-30T18:34:50.215Z,28.40
2018-07-30T18:39:44.883Z,28.10
2018-07-30T18:44:39.519Z,27.80
2018-07-30T18:49:34.188Z,27.60
2018-07-30T18:54:28.906Z,27.50
2018-07-30T18:59:23.537Z,27.20
2018-07-30T19:04:18.207Z,27.10
2018-07-30T19:14:07.519Z,26.50
2018-07-30T19:19:02.713Z,26.30
2018-07-30T19:23:57.432Z,26.00
2018-07-30T19:28:52.319Z,25.90
2018-07-30T19:33:47.827Z,25.80
2018-07-30T19:38:42.529Z,25.50
2018-07-30T19:43:44.270Z,25.60
2018-07-30T19:48:39.008Z,25.60
2018-07-30T19:53:33.964Z,25.50
2018-07-30T19:58:29.042Z,25.30
2018-07-30T20:03:23.888Z,25.30
2018-07-30T20:08:18.595Z,25.20
2018-07-30T20:13:14.131Z,25.30
2018-07-30T20:18:08.885Z,25.10
2018-07-30T20:23:03.796Z,25.00
2018-07-30T20:27:58.715Z,25.00
2018-07-30T20:32:53.504Z,25.00
2018-07-30T20:37:48.119Z,24.90
2018-07-30T20:42:42.999Z,24.60
2018-07-30T20:47:37.617Z,24.70
2018-07-30T20:52:32.332Z,24.60
2018-07-30T20:57:27.029Z,24.70
2018-07-30T21:02:21.721Z,24.70
2018-07-30T21:07:16.400Z,24.60
2018-07-30T21:12:11.031Z,24.30
2018-07-30T21:17:05.746Z,24.20
2018-07-30T21:22:00.422Z,24.10
2018-07-30T21:31:49.379Z,24.00
2018-07-30T21:36:45.048Z,24.10
2018-07-30T21:41:40.311Z,23.80
2018-07-30T21:46:34.909Z,23.80
2018-07-30T21:51:29.609Z,23.70
2018-07-30T21:56:24.291Z,23.70
2018-07-30T22:01:18.919Z,23.70
2018-07-30T22:06:16.242Z,23.30
2018-07-30T22:11:11.442Z,23.30
2018-07-30T22:16:06.697Z,23.20
2018-07-30T22:21:01.331Z,23.10
2018-07-30T22:25:55.967Z,23.20
2018-07-30T22:30:50.776Z,23.00
2018-07-30T22:35:45.568Z,22.80
2018-07-30T22:40:40.246Z,22.80
2018-07-30T22:45:34.902Z,22.70
2018-07-30T22:50:29.515Z,22.80
2018-07-30T22:55:24.186Z,22.90
2018-07-30T23:00:18.892Z,22.90
2018-07-30T23:05:13.671Z,22.60
2018-07-30T23:10:08.371Z,22.60
2018-07-30T23:15:03.184Z,22.50
2018-07-30T23:19:57.852Z,22.30
2018-07-30T23:24:52.549Z,22.20
2018-07-30T23:29:47.326Z,22.10
2018-07-30T23:34:42.156Z,21.90
2018-07-30T23:39:36.743Z,21.80
2018-07-30T23:44:31.387Z,21.70
2018-07-30T23:49:26.243Z,21.90
2018-07-30T23:54:20.897Z,21.90
2018-07-30T23:59:15.614Z,21.80
